createdAt,value
2023-05-19T00:00:13.529Z,94.45
2023-05-19T00:01:13.502Z,94.45
2023-05-19T00:02:13.538Z,94.56
2023-05-19T00:03:13.786Z,94.45
2023-05-19T00:04:13.525Z,94.45
2023-05-19T00:05:13.484Z,94.45
2023-05-19T00:06:13.475Z,94.66
2023-05-19T00:07:13.456Z,94.45
2023-05-19T00:08:13.445Z,94.45
2023-05-19T00:09:13.439Z,94.45
2023-05-19T00:10:13.418Z,94.35
2023-05-19T00:11:13.416Z,94.66
2023-05-19T00:12:13.405Z,94.76
2023-05-19T00:13:13.391Z,94.76
2023-05-19T00:14:13.390Z,94.66
2023-05-19T00:15:13.379Z,94.66
2023-05-19T00:16:13.512Z,94.66
2023-05-19T00:17:13.331Z,94.56
2023-05-19T00:18:13.351Z,94.56
2023-05-19T00:19:13.400Z,94.66
2023-05-19T00:20:14.455Z,94.56
2023-05-19T00:21:13.298Z,94.56
2023-05-19T00:22:13.312Z,94.87
2023-05-19T00:23:13.266Z,94.87
2023-05-19T00:24:13.268Z,94.76
2023-05-19T00:25:13.268Z,94.76
2023-05-19T00:26:13.271Z,94.66
2023-05-19T00:27:13.233Z,94.56
2023-05-19T00:28:13.220Z,94.45
2023-05-19T00:29:13.281Z,94.49
2023-05-19T00:30:13.257Z,94.39
2023-05-19T00:31:13.200Z,94.39
2023-05-19T00:32:13.259Z,94.60
2023-05-19T00:33:13.225Z,94.49
2023-05-19T00:34:13.173Z,94.49
2023-05-19T00:35:13.163Z,94.29
2023-05-19T00:36:13.269Z,94.39
2023-05-19T00:37:13.149Z,94.39
2023-05-19T00:38:13.133Z,94.18
2023-05-19T00:39:13.127Z,94.39
2023-05-19T00:40:13.108Z,94.39
2023-05-19T00:41:13.101Z,94.29
2023-05-19T00:42:13.111Z,94.29
2023-05-19T00:43:13.105Z,94.60
2023-05-19T00:44:13.057Z,94.49
2023-05-19T00:45:13.052Z,94.49
2023-05-19T00:46:13.152Z,94.39
2023-05-19T00:47:13.071Z,94.70
2023-05-19T00:48:13.035Z,94.70
2023-05-19T00:49:13.028Z,94.74
2023-05-19T00:50:13.010Z,94.74
2023-05-19T00:51:12.990Z,94.74
2023-05-19T00:52:13.038Z,94.85
2023-05-19T00:53:12.965Z,95.16
2023-05-19T00:54:12.979Z,94.95
2023-05-19T00:55:12.952Z,94.95
2023-05-19T00:56:12.944Z,95.06
2023-05-19T00:57:12.924Z,95.16
2023-05-19T00:58:12.939Z,95.16
2023-05-19T00:59:12.926Z,95.26
2023-05-19T01:00:12.903Z,95.26
2023-05-19T01:01:12.928Z,95.06
2023-05-19T01:02:12.882Z,95.06
2023-05-19T01:03:13.047Z,95.06
2023-05-19T01:04:12.870Z,95.16
2023-05-19T01:05:12.875Z,95.06
2023-05-19T01:06:12.860Z,94.95
2023-05-19T01:07:12.850Z,95.16
2023-05-19T01:08:12.834Z,95.16
2023-05-19T01:09:13.847Z,95.10
2023-05-19T01:10:12.815Z,95.10
2023-05-19T01:11:12.822Z,95.31
2023-05-19T01:12:12.774Z,95.83
2023-05-19T01:13:12.769Z,95.62
2023-05-19T01:14:12.759Z,95.62
2023-05-19T01:15:12.766Z,95.72
2023-05-19T01:16:12.897Z,95.72
2023-05-19T01:17:12.766Z,95.93
2023-05-19T01:18:12.763Z,96.03
2023-05-19T01:19:12.751Z,95.83
2023-05-19T01:20:12.694Z,95.72
2023-05-19T01:21:12.696Z,95.72
2023-05-19T01:22:12.682Z,95.83
2023-05-19T01:23:12.692Z,96.24
2023-05-19T01:24:12.651Z,96.34
2023-05-19T01:25:12.651Z,96.24
2023-05-19T01:26:12.648Z,96.03
2023-05-19T01:27:12.643Z,96.03
2023-05-19T01:28:12.645Z,96.03
2023-05-19T01:29:12.638Z,95.93
2023-05-19T01:30:12.601Z,96.14
2023-05-19T01:31:12.581Z,96.19
2023-05-19T01:32:12.636Z,96.19
2023-05-19T01:33:12.573Z,95.98
2023-05-19T01:34:12.581Z,95.98
2023-05-19T01:35:12.549Z,95.98
2023-05-19T01:36:12.535Z,95.77
2023-05-19T01:37:12.533Z,95.67
2023-05-19T01:38:12.574Z,95.56
2023-05-19T01:39:12.533Z,95.67
2023-05-19T01:40:12.511Z,95.77
2023-05-19T01:41:12.510Z,95.77
2023-05-19T01:42:12.485Z,95.87
2023-05-19T01:43:12.485Z,95.77
2023-05-19T01:44:12.463Z,95.81
2023-05-19T01:45:12.475Z,96.02
2023-05-19T01:46:12.504Z,96.02
2023-05-19T01:47:12.444Z,96.02
2023-05-19T01:48:12.437Z,96.02
2023-05-19T01:49:12.418Z,96.02
2023-05-19T01:50:12.399Z,96.02
2023-05-19T01:51:12.426Z,96.12
2023-05-19T01:52:12.402Z,96.12
2023-05-19T01:53:12.373Z,96.12
2023-05-19T01:54:12.353Z,96.12
2023-05-19T01:55:12.343Z,96.12
2023-05-19T01:56:12.353Z,95.92
2023-05-19T01:57:12.371Z,95.92
2023-05-19T01:58:12.341Z,96.02
2023-05-19T01:59:12.301Z,95.92
2023-05-19T02:00:12.322Z,95.81
2023-05-19T02:01:12.296Z,95.81
2023-05-19T02:02:12.293Z,96.02
2023-05-19T02:03:12.280Z,96.12
2023-05-19T02:04:12.322Z,96.12
2023-05-19T02:05:12.273Z,96.33
2023-05-19T02:06:12.280Z,96.44
2023-05-19T02:07:12.238Z,96.33
2023-05-19T02:08:12.244Z,96.23
2023-05-19T02:09:12.233Z,96.33
2023-05-19T02:10:12.212Z,96.44
2023-05-19T02:11:12.195Z,96.44
2023-05-19T02:12:12.209Z,96.54
2023-05-19T02:13:12.163Z,96.44
2023-05-19T02:14:12.159Z,96.33
2023-05-19T02:15:12.183Z,96.33
2023-05-19T02:16:19.122Z,96.23
2023-05-19T02:17:18.637Z,96.23
2023-05-19T02:18:18.622Z,96.12
2023-05-19T02:19:18.631Z,96.27
2023-05-19T02:20:20.060Z,96.58
2023-05-19T02:21:18.567Z,96.58
2023-05-19T02:22:18.622Z,96.79
2023-05-19T02:23:19.589Z,96.89
2023-05-19T02:24:19.572Z,96.89
2023-05-19T02:25:12.101Z,97.00
2023-05-19T02:26:18.549Z,97.20
2023-05-19T02:27:18.538Z,97.10
2023-05-19T02:28:18.520Z,97.41
2023-05-19T02:29:18.511Z,97.31
2023-05-19T02:30:19.700Z,97.20
2023-05-19T02:31:18.554Z,97.20
2023-05-19T02:32:19.736Z,97.20
2023-05-19T02:33:18.467Z,97.00
2023-05-19T02:34:18.491Z,96.89
2023-05-19T02:35:11.955Z,97.00
2023-05-19T02:36:18.434Z,96.89
2023-05-19T02:37:19.789Z,96.69
2023-05-19T02:38:11.917Z,96.89
2023-05-19T02:39:18.412Z,97.00
2023-05-19T02:40:18.419Z,97.10
2023-05-19T02:41:19.410Z,97.14
2023-05-19T02:42:18.410Z,97.14
2023-05-19T02:43:18.397Z,97.14
2023-05-19T02:44:18.362Z,97.04
2023-05-19T02:45:11.851Z,97.04
2023-05-19T02:46:11.868Z,97.14
2023-05-19T02:47:19.361Z,97.14
2023-05-19T02:48:19.930Z,97.04
2023-05-19T02:49:18.317Z,97.14
2023-05-19T02:50:18.349Z,97.04
2023-05-19T02:51:18.305Z,96.94
2023-05-19T02:52:18.276Z,96.94
2023-05-19T02:53:11.769Z,96.94
2023-05-19T02:54:15.893Z,96.83
2023-05-19T02:55:11.769Z,96.73
2023-05-19T02:56:11.745Z,96.73
2023-05-19T02:57:11.723Z,96.83
2023-05-19T02:58:11.693Z,97.04
2023-05-19T02:59:11.702Z,97.45
2023-05-19T03:00:11.749Z,97.45
2023-05-19T03:01:11.704Z,97.35
2023-05-19T03:02:11.852Z,97.35
2023-05-19T03:03:11.659Z,97.25
2023-05-19T03:04:11.608Z,97.35
2023-05-19T03:05:11.659Z,97.35
2023-05-19T03:06:11.653Z,97.67
2023-05-19T03:07:11.585Z,97.56
2023-05-19T03:08:11.584Z,97.45
2023-05-19T03:09:11.566Z,97.56
2023-05-19T03:10:11.550Z,97.45
2023-05-19T03:11:11.542Z,97.35
2023-05-19T03:12:11.550Z,97.25
2023-05-19T03:13:11.550Z,97.25
2023-05-19T03:14:11.503Z,97.14
2023-05-19T03:15:11.482Z,97.25
2023-05-19T03:16:11.504Z,97.14
2023-05-19T03:17:11.541Z,97.19
2023-05-19T03:18:11.497Z,97.19
2023-05-19T03:19:11.490Z,97.40
2023-05-19T03:20:11.450Z,97.30
2023-05-19T03:21:11.429Z,97.40
2023-05-19T03:22:11.430Z,97.50
2023-05-19T03:23:11.444Z,97.40
2023-05-19T03:24:11.418Z,97.50
2023-05-19T03:25:11.396Z,97.61
2023-05-19T03:26:11.396Z,97.40
2023-05-19T03:27:11.401Z,97.40
2023-05-19T03:28:11.357Z,97.40
2023-05-19T03:29:11.382Z,97.40
2023-05-19T03:30:11.348Z,97.50
2023-05-19T03:31:11.334Z,97.61
2023-05-19T03:32:11.345Z,97.61
2023-05-19T03:33:11.534Z,97.61
2023-05-19T03:34:11.343Z,97.71
2023-05-19T03:35:11.294Z,97.71
2023-05-19T03:36:11.290Z,97.61
2023-05-19T03:37:11.294Z,97.50
2023-05-19T03:38:11.268Z,97.50
2023-05-19T03:39:11.291Z,97.50
2023-05-19T03:40:11.264Z,97.50
2023-05-19T03:41:11.220Z,97.40
2023-05-19T03:42:11.294Z,97.61
2023-05-19T03:43:11.227Z,97.71
2023-05-19T03:44:11.216Z,97.88
2023-05-19T03:45:11.222Z,97.88
2023-05-19T03:46:11.223Z,97.61
2023-05-19T03:47:11.184Z,97.56
2023-05-19T03:48:11.222Z,97.61
2023-05-19T03:49:11.156Z,97.61
2023-05-19T03:50:11.148Z,97.45
2023-05-19T03:51:19.800Z,97.50
2023-05-19T03:52:11.126Z,97.50
2023-05-19T03:53:11.106Z,97.50
2023-05-19T03:54:11.115Z,97.56
2023-05-19T03:55:11.100Z,97.50
2023-05-19T03:56:11.085Z,97.45
2023-05-19T03:57:11.086Z,97.40
2023-05-19T03:58:11.106Z,97.35
2023-05-19T03:59:11.086Z,97.25
2023-05-19T04:00:11.259Z,97.25
2023-05-19T04:01:11.024Z,97.19
2023-05-19T04:02:11.064Z,97.19
2023-05-19T04:03:11.181Z,97.25
2023-05-19T04:04:11.042Z,97.30
2023-05-19T04:05:10.983Z,97.25
2023-05-19T04:06:10.975Z,97.25
2023-05-19T04:07:10.961Z,97.25
2023-05-19T04:08:10.979Z,97.25
2023-05-19T04:09:10.964Z,97.25
2023-05-19T04:10:10.962Z,97.25
2023-05-19T04:11:10.949Z,97.45
2023-05-19T04:12:10.975Z,97.56
2023-05-19T04:13:10.912Z,97.67
2023-05-19T04:14:10.915Z,97.67
2023-05-19T04:15:10.898Z,97.67
2023-05-19T04:16:11.037Z,97.77
2023-05-19T04:17:10.866Z,97.88
2023-05-19T04:18:10.924Z,97.67
2023-05-19T04:19:10.936Z,97.77
2023-05-19T04:20:10.836Z,98.08
2023-05-19T04:21:10.837Z,98.35
2023-05-19T04:22:10.864Z,98.24
2023-05-19T04:23:10.832Z,98.35
2023-05-19T04:24:10.807Z,98.66
2023-05-19T04:25:10.798Z,98.55
2023-05-19T04:26:10.821Z,98.45
2023-05-19T04:27:10.781Z,98.35
2023-05-19T04:28:10.765Z,98.24
2023-05-19T04:29:10.790Z,98.03
2023-05-19T04:30:10.770Z,97.89
2023-05-19T04:31:10.940Z,98.10
2023-05-19T04:32:10.714Z,98.10
2023-05-19T04:33:10.725Z,98.41
2023-05-19T04:34:10.720Z,98.61
2023-05-19T04:35:11.419Z,98.51
2023-05-19T04:36:10.766Z,98.41
2023-05-19T04:37:10.663Z,98.41
2023-05-19T04:38:10.661Z,98.36
2023-05-19T04:39:10.666Z,98.26
2023-05-19T04:40:10.646Z,98.16
2023-05-19T04:41:10.681Z,98.05
2023-05-19T04:42:10.628Z,98.16
2023-05-19T04:43:10.610Z,98.00
2023-05-19T04:44:10.589Z,98.00
2023-05-19T04:45:10.598Z,98.00
2023-05-19T04:46:13.237Z,98.11
2023-05-19T04:47:10.635Z,98.11
2023-05-19T04:48:10.577Z,98.07
2023-05-19T04:49:10.541Z,98.07
2023-05-19T04:50:10.538Z,98.07
2023-05-19T04:51:10.549Z,97.96
2023-05-19T04:52:10.536Z,97.96
2023-05-19T04:53:10.531Z,97.86
2023-05-19T04:54:10.499Z,97.71
2023-05-19T04:55:10.513Z,97.71
2023-05-19T04:56:10.488Z,97.81
2023-05-19T04:57:10.503Z,97.81
2023-05-19T04:58:10.468Z,97.81
2023-05-19T04:59:10.445Z,97.91
2023-05-19T05:00:10.462Z,98.12
2023-05-19T05:01:10.434Z,98.08
2023-05-19T05:02:10.608Z,98.08
2023-05-19T05:03:10.513Z,97.87
2023-05-19T05:04:10.546Z,97.97
2023-05-19T05:05:10.424Z,97.83
2023-05-19T05:06:10.408Z,97.72
2023-05-19T05:07:10.374Z,97.72
2023-05-19T05:08:10.361Z,97.62
2023-05-19T05:09:10.374Z,97.57
2023-05-19T05:10:10.350Z,97.47
2023-05-19T05:11:10.320Z,97.36
2023-05-19T05:12:10.308Z,97.26
2023-05-19T05:13:11.789Z,97.11
2023-05-19T05:14:10.322Z,97.01
2023-05-19T05:15:10.776Z,96.91
2023-05-19T05:16:10.311Z,96.76
2023-05-19T05:17:10.270Z,96.76
2023-05-19T05:18:10.456Z,96.76
2023-05-19T05:19:10.335Z,96.76
2023-05-19T05:20:10.259Z,96.72
2023-05-19T05:21:10.221Z,96.51
2023-05-19T05:22:10.226Z,96.30
2023-05-19T05:23:10.260Z,96.15
2023-05-19T05:24:10.210Z,96.05
2023-05-19T05:25:10.193Z,95.95
2023-05-19T05:26:10.194Z,95.95
2023-05-19T05:27:10.428Z,95.80
2023-05-19T05:28:10.160Z,95.59
2023-05-19T05:29:10.152Z,95.39
2023-05-19T05:30:10.116Z,95.14
2023-05-19T05:31:10.148Z,95.03
2023-05-19T05:32:10.152Z,94.93
2023-05-19T05:33:10.309Z,94.89
2023-05-19T05:34:10.096Z,95.09
2023-05-19T05:35:11.135Z,94.89
2023-05-19T05:36:10.297Z,94.74
2023-05-19T05:37:10.069Z,94.64
2023-05-19T05:38:10.092Z,93.98
2023-05-19T05:39:10.060Z,93.35
2023-05-19T05:40:10.255Z,92.33
2023-05-19T05:41:10.032Z,91.46
2023-05-19T05:42:10.082Z,91.46
2023-05-19T05:43:10.022Z,91.42
2023-05-19T05:44:10.029Z,90.90
2023-05-19T05:45:09.998Z,91.00
2023-05-19T05:46:10.024Z,89.83
2023-05-19T05:47:10.034Z,89.73
2023-05-19T05:48:10.064Z,89.52
2023-05-19T05:49:09.947Z,89.58
2023-05-19T05:50:10.074Z,89.58
2023-05-19T05:51:18.565Z,89.69
2023-05-19T05:52:09.939Z,88.92
2023-05-19T05:53:10.012Z,88.20
2023-05-19T05:54:09.912Z,88.47
2023-05-19T05:55:09.910Z,88.06
2023-05-19T05:56:09.908Z,86.27
2023-05-19T05:57:10.213Z,85.76
2023-05-19T05:58:09.887Z,84.80
2023-05-19T05:59:17.572Z,83.98
2023-05-19T06:00:16.410Z,84.66
2023-05-19T06:01:09.883Z,84.55
2023-05-19T06:02:09.876Z,84.55
2023-05-19T06:03:10.287Z,84.72
2023-05-19T06:04:10.646Z,84.72
2023-05-19T06:05:09.888Z,83.55
2023-05-19T06:06:09.810Z,83.76
2023-05-19T06:07:09.934Z,80.58
2023-05-19T06:08:09.843Z,80.13
2023-05-19T06:09:10.028Z,80.33
2023-05-19T06:10:09.776Z,80.60
2023-05-19T06:11:09.862Z,78.76
2023-05-19T06:12:09.789Z,77.94
2023-05-19T06:13:09.796Z,77.50
2023-05-19T06:14:09.726Z,76.75
2023-05-19T06:15:09.710Z,75.59
2023-05-19T06:16:09.969Z,75.00
2023-05-19T06:17:09.740Z,74.15
2023-05-19T06:18:09.759Z,72.55
2023-05-19T06:19:09.724Z,71.67
2023-05-19T06:20:09.915Z,71.80
2023-05-19T06:21:09.669Z,64.92
2023-05-19T06:22:09.619Z,61.34
2023-05-19T06:23:09.611Z,60.21
2023-05-19T06:24:09.631Z,56.59
2023-05-19T06:25:10.153Z,55.57
2023-05-19T06:26:09.577Z,52.47
2023-05-19T06:27:09.560Z,51.18
2023-05-19T06:28:09.567Z,48.41
2023-05-19T06:29:09.558Z,47.59
2023-05-19T06:30:09.560Z,46.03
2023-05-19T06:31:09.568Z,44.79
2023-05-19T06:32:09.511Z,43.34
2023-05-19T06:33:09.545Z,42.21
2023-05-19T06:34:09.547Z,41.09
2023-05-19T06:35:12.215Z,42.68
2023-05-19T06:36:09.497Z,41.55
2023-05-19T06:37:09.505Z,40.73
2023-05-19T06:38:09.447Z,40.13
2023-05-19T06:39:09.480Z,39.61
2023-05-19T06:40:09.436Z,39.51
2023-05-19T06:41:09.465Z,38.11
2023-05-19T06:42:09.427Z,39.29
2023-05-19T06:43:09.387Z,38.57
2023-05-19T06:44:09.399Z,38.46
2023-05-19T06:45:09.374Z,36.88
2023-05-19T06:46:09.556Z,37.48
2023-05-19T06:47:09.429Z,39.46
2023-05-19T06:48:10.213Z,37.36
2023-05-19T06:49:09.438Z,36.71
2023-05-19T06:50:09.358Z,39.98
2023-05-19T06:51:09.357Z,37.16
2023-05-19T06:52:09.443Z,37.06
2023-05-19T06:53:09.325Z,36.29
2023-05-19T06:54:09.330Z,36.40
2023-05-19T06:55:09.279Z,36.99
2023-05-19T06:56:09.280Z,37.41
2023-05-19T06:57:09.287Z,39.69
2023-05-19T06:58:09.303Z,39.43
2023-05-19T06:59:09.235Z,39.00
2023-05-19T07:00:09.244Z,36.59
2023-05-19T07:01:09.208Z,36.76
2023-05-19T07:02:09.270Z,34.68
2023-05-19T07:03:09.266Z,35.36
2023-05-19T07:04:09.238Z,33.78
2023-05-19T07:05:09.166Z,34.18
2023-05-19T07:06:09.186Z,32.95
2023-05-19T07:07:09.144Z,32.75
2023-05-19T07:08:09.177Z,33.95
2023-05-19T07:09:09.147Z,33.23
2023-05-19T07:10:09.131Z,32.42
2023-05-19T07:11:09.147Z,34.03
2023-05-19T07:12:09.159Z,32.54
2023-05-19T07:13:09.113Z,32.92
2023-05-19T07:14:09.082Z,36.63
2023-05-19T07:15:09.093Z,35.03
2023-05-19T07:16:09.096Z,34.84
2023-05-19T07:17:09.099Z,35.78
2023-05-19T07:18:09.127Z,38.51
2023-05-19T07:19:09.125Z,40.03
2023-05-19T07:20:09.043Z,42.11
2023-05-19T07:21:08.994Z,43.30
2023-05-19T07:22:08.992Z,44.98
2023-05-19T07:23:08.990Z,46.36
2023-05-19T07:24:08.991Z,49.76
2023-05-19T07:25:09.003Z,51.95
2023-05-19T07:26:08.959Z,55.15
2023-05-19T07:27:09.027Z,56.49
2023-05-19T07:28:08.941Z,55.80
2023-05-19T07:29:08.915Z,57.46
2023-05-19T07:30:08.925Z,58.20
2023-05-19T07:31:08.905Z,58.22
2023-05-19T07:32:09.062Z,59.16
2023-05-19T07:33:08.945Z,60.08
2023-05-19T07:34:08.880Z,61.40
2023-05-19T07:35:08.864Z,60.38
2023-05-19T07:36:08.864Z,60.31
2023-05-19T07:37:08.819Z,60.72
2023-05-19T07:38:08.822Z,61.33
2023-05-19T07:39:08.869Z,61.33
2023-05-19T07:40:08.805Z,61.43
2023-05-19T07:41:08.795Z,60.95
2023-05-19T07:42:08.797Z,60.44
2023-05-19T07:43:08.774Z,61.05
2023-05-19T07:44:08.750Z,62.78
2023-05-19T07:45:08.868Z,63.29
2023-05-19T07:46:08.839Z,62.78
2023-05-19T07:47:08.764Z,62.27
2023-05-19T07:48:08.771Z,61.56
2023-05-19T07:49:08.719Z,61.25
2023-05-19T07:50:08.703Z,64.11
2023-05-19T07:51:08.698Z,62.48
2023-05-19T07:52:08.718Z,63.09
2023-05-19T07:53:08.667Z,61.56
2023-05-19T07:54:08.663Z,61.66
2023-05-19T07:55:08.636Z,61.56
2023-05-19T07:56:08.628Z,61.56
2023-05-19T07:57:08.617Z,62.07
2023-05-19T07:58:08.634Z,61.87
2023-05-19T07:59:08.607Z,64.00
2023-05-19T08:00:08.581Z,63.16
2023-05-19T08:01:08.590Z,63.36
2023-05-19T08:02:08.670Z,63.26
2023-05-19T08:03:08.671Z,61.33
2023-05-19T08:04:09.743Z,60.82
2023-05-19T08:05:08.550Z,61.33
2023-05-19T08:06:08.536Z,61.63
2023-05-19T08:07:08.517Z,58.99
2023-05-19T08:08:08.514Z,60.72
2023-05-19T08:09:08.511Z,59.98
2023-05-19T08:10:08.497Z,60.08
2023-05-19T08:11:08.480Z,59.57
2023-05-19T08:12:08.511Z,62.32
2023-05-19T08:13:08.454Z,60.79
2023-05-19T08:14:08.455Z,62.62
2023-05-19T08:15:08.477Z,61.81
2023-05-19T08:16:08.491Z,60.25
2023-05-19T08:17:08.424Z,60.86
2023-05-19T08:18:08.512Z,60.25
2023-05-19T08:19:08.455Z,59.64
2023-05-19T08:20:08.539Z,59.44
2023-05-19T08:21:08.372Z,56.70
2023-05-19T08:22:08.369Z,57.21
2023-05-19T08:23:08.381Z,58.53
2023-05-19T08:24:08.348Z,59.54
2023-05-19T08:25:08.331Z,60.36
2023-05-19T08:26:08.321Z,62.29
2023-05-19T08:27:08.328Z,59.03
2023-05-19T08:28:08.302Z,59.03
2023-05-19T08:29:08.300Z,57.99
2023-05-19T08:30:08.343Z,59.11
2023-05-19T08:31:08.379Z,59.31
2023-05-19T08:32:09.010Z,58.80
2023-05-19T08:33:08.338Z,59.62
2023-05-19T08:34:08.253Z,58.98
2023-05-19T08:35:08.237Z,54.00
2023-05-19T08:36:08.287Z,54.61
2023-05-19T08:37:08.240Z,54.21
2023-05-19T08:38:08.194Z,56.74
2023-05-19T08:39:08.202Z,58.65
2023-05-19T08:40:08.170Z,57.12
2023-05-19T08:41:08.214Z,55.91
2023-05-19T08:42:08.164Z,54.90
2023-05-19T08:43:08.156Z,55.91
2023-05-19T08:44:08.121Z,55.27
2023-05-19T08:45:08.166Z,51.72
2023-05-19T08:46:08.418Z,56.18
2023-05-19T08:47:08.319Z,54.16
2023-05-19T08:48:08.170Z,53.25
2023-05-19T08:49:08.094Z,54.57
2023-05-19T08:50:08.107Z,53.34
2023-05-19T08:51:08.059Z,54.77
2023-05-19T08:52:08.080Z,52.03
2023-05-19T08:53:12.760Z,52.23
2023-05-19T08:54:08.147Z,52.73
2023-05-19T08:55:08.072Z,53.96
2023-05-19T08:56:07.993Z,54.05
2023-05-19T08:57:08.006Z,52.53
2023-05-19T08:58:08.009Z,52.53
2023-05-19T08:59:07.981Z,51.12
2023-05-19T09:00:07.964Z,51.52
2023-05-19T09:01:08.005Z,52.13
2023-05-19T09:02:07.938Z,53.75
2023-05-19T09:04:08.069Z,51.90
2023-05-19T09:05:08.036Z,50.38
2023-05-19T09:06:07.948Z,50.26
2023-05-19T09:07:07.947Z,51.27
2023-05-19T09:08:07.903Z,53.17
2023-05-19T09:09:07.870Z,54.79
2023-05-19T09:10:07.922Z,51.55
2023-05-19T09:11:07.875Z,51.04
2023-05-19T09:12:07.832Z,51.14
2023-05-19T09:13:07.830Z,50.74
2023-05-19T09:14:07.838Z,50.63
2023-05-19T09:15:07.793Z,52.06
2023-05-19T09:16:08.138Z,53.78
2023-05-19T09:17:07.838Z,51.45
2023-05-19T09:18:07.839Z,48.54
2023-05-19T09:19:07.853Z,47.75
2023-05-19T09:20:07.761Z,50.79
2023-05-19T09:21:07.761Z,49.37
2023-05-19T09:22:07.752Z,49.87
2023-05-19T09:23:07.757Z,50.48
2023-05-19T09:24:07.722Z,51.60
2023-05-19T09:25:07.712Z,49.77
2023-05-19T09:26:08.155Z,51.19
2023-05-19T09:27:07.688Z,52.00
2023-05-19T09:28:07.697Z,53.91
2023-05-19T09:29:07.802Z,50.79
2023-05-19T09:30:07.795Z,51.70
2023-05-19T09:31:07.637Z,51.80
2023-05-19T09:32:07.767Z,50.08
2023-05-19T09:33:07.759Z,49.98
2023-05-19T09:34:07.646Z,48.43
2023-05-19T09:35:07.676Z,49.34
2023-05-19T09:36:07.681Z,45.90
2023-05-19T09:37:07.624Z,47.42
2023-05-19T09:38:07.699Z,46.81
2023-05-19T09:39:07.581Z,48.74
2023-05-19T09:40:07.571Z,47.09
2023-05-19T09:41:07.602Z,48.21
2023-05-19T09:42:07.561Z,48.41
2023-05-19T09:43:07.497Z,48.31
2023-05-19T09:44:07.564Z,50.01
2023-05-19T09:45:07.512Z,48.69
2023-05-19T09:46:07.822Z,47.88
2023-05-19T09:47:07.551Z,48.79
2023-05-19T09:48:07.577Z,47.17
2023-05-19T09:49:07.462Z,48.28
2023-05-19T09:50:07.448Z,47.07
2023-05-19T09:51:07.515Z,46.26
2023-05-19T09:52:07.427Z,46.67
2023-05-19T09:53:07.420Z,47.88
2023-05-19T09:54:07.448Z,50.51
2023-05-19T09:55:07.409Z,48.87
2023-05-19T09:56:07.380Z,48.16
2023-05-19T09:57:08.531Z,46.84
2023-05-19T09:58:07.418Z,46.24
2023-05-19T09:59:07.541Z,45.43
2023-05-19T10:00:07.365Z,44.32
2023-05-19T10:01:07.327Z,45.73
2023-05-19T10:02:07.405Z,45.53
2023-05-19T10:03:07.318Z,45.83
2023-05-19T10:04:07.283Z,45.33
2023-05-19T10:05:07.366Z,46.75
2023-05-19T10:06:07.320Z,47.27
2023-05-19T10:07:07.260Z,48.57
2023-05-19T10:08:07.294Z,46.14
2023-05-19T10:09:07.303Z,46.42
2023-05-19T10:10:07.335Z,46.22
2023-05-19T10:11:07.262Z,47.03
2023-05-19T10:12:07.206Z,45.79
2023-05-19T10:13:07.257Z,46.30
2023-05-19T10:14:07.200Z,47.20
2023-05-19T10:15:07.214Z,46.09
2023-05-19T10:16:07.282Z,46.48
2023-05-19T10:17:07.319Z,45.37
2023-05-19T10:18:07.201Z,45.25
2023-05-19T10:19:07.207Z,44.43
2023-05-19T10:20:07.159Z,43.91
2023-05-19T10:21:07.177Z,43.80
2023-05-19T10:22:07.159Z,44.11
2023-05-19T10:23:07.085Z,41.83
2023-05-19T10:24:07.068Z,43.97
2023-05-19T10:25:07.077Z,44.07
2023-05-19T10:26:07.080Z,45.00
2023-05-19T10:27:07.053Z,43.79
2023-05-19T10:28:07.265Z,44.80
2023-05-19T10:29:07.029Z,44.49
2023-05-19T10:30:09.258Z,46.92
2023-05-19T10:31:07.018Z,46.91
2023-05-19T10:32:07.095Z,45.99
2023-05-19T10:33:07.052Z,45.18
2023-05-19T10:34:06.982Z,46.20
2023-05-19T10:35:06.997Z,42.98
2023-05-19T10:36:06.972Z,43.18
2023-05-19T10:37:06.968Z,42.68
2023-05-19T10:38:06.941Z,43.37
2023-05-19T10:39:06.948Z,46.20
2023-05-19T10:40:06.945Z,44.78
2023-05-19T10:41:06.899Z,43.97
2023-05-19T10:42:06.889Z,44.98
2023-05-19T10:43:14.842Z,45.99
2023-05-19T10:44:14.812Z,45.97
2023-05-19T10:45:14.561Z,45.77
2023-05-19T10:46:14.511Z,45.69
2023-05-19T10:47:14.588Z,46.37
2023-05-19T10:48:14.391Z,44.05
2023-05-19T10:49:13.526Z,45.85
2023-05-19T10:50:15.398Z,45.45
2023-05-19T10:51:14.400Z,45.25
2023-05-19T10:52:13.362Z,45.93
2023-05-19T10:53:15.880Z,45.42
2023-05-19T10:54:14.423Z,45.02
2023-05-19T10:55:13.363Z,44.51
2023-05-19T10:56:14.358Z,44.71
2023-05-19T10:57:13.244Z,44.34
2023-05-19T10:58:14.273Z,44.94
2023-05-19T10:59:14.979Z,42.72
2023-05-19T11:00:13.234Z,45.32
2023-05-19T11:01:13.247Z,45.02
2023-05-19T11:02:14.314Z,44.92
2023-05-19T11:03:13.203Z,44.11
2023-05-19T11:04:13.218Z,43.20
2023-05-19T11:05:15.593Z,45.32
2023-05-19T11:06:13.156Z,42.80
2023-05-19T11:07:06.636Z,42.29
2023-05-19T11:08:06.655Z,44.09
2023-05-19T11:09:15.132Z,42.19
2023-05-19T11:10:14.216Z,44.31
2023-05-19T11:11:06.576Z,43.73
2023-05-19T11:12:13.102Z,42.64
2023-05-19T11:14:14.410Z,45.26
2023-05-19T11:15:06.570Z,44.05
2023-05-19T11:16:06.574Z,43.67
2023-05-19T11:17:06.705Z,44.27
2023-05-19T11:18:06.556Z,42.96
2023-05-19T11:19:06.568Z,44.27
2023-05-19T11:20:06.497Z,44.17
2023-05-19T11:21:06.497Z,45.08
2023-05-19T11:22:06.483Z,44.27
2023-05-19T11:23:06.611Z,46.20
2023-05-19T11:24:06.541Z,43.65
2023-05-19T11:25:06.443Z,43.43
2023-05-19T11:26:06.442Z,43.93
2023-05-19T11:27:06.427Z,45.02
2023-05-19T11:28:06.413Z,45.20
2023-05-19T11:29:06.431Z,44.07
2023-05-19T11:30:06.758Z,44.25
2023-05-19T11:31:06.383Z,48.28
2023-05-19T11:32:06.401Z,42.33
2023-05-19T11:33:06.437Z,43.74
2023-05-19T11:34:06.354Z,43.85
2023-05-19T11:35:06.345Z,42.94
2023-05-19T11:36:06.326Z,43.44
2023-05-19T11:37:06.318Z,43.85
2023-05-19T11:38:06.352Z,44.95
2023-05-19T11:39:06.308Z,43.97
2023-05-19T11:40:06.301Z,45.50
2023-05-19T11:41:06.262Z,43.51
2023-05-19T11:42:06.371Z,43.34
2023-05-19T11:43:06.248Z,44.96
2023-05-19T11:44:06.266Z,44.66
2023-05-19T11:45:06.259Z,46.37
2023-05-19T11:46:06.281Z,46.48
2023-05-19T11:47:06.198Z,47.69
2023-05-19T11:48:06.284Z,47.49
2023-05-19T11:49:06.202Z,45.25
2023-05-19T11:50:06.176Z,45.95
2023-05-19T11:51:06.180Z,47.67
2023-05-19T11:52:06.160Z,47.26
2023-05-19T11:53:06.163Z,47.47
2023-05-19T11:54:06.161Z,46.86
2023-05-19T11:55:06.129Z,47.16
2023-05-19T11:56:06.134Z,46.86
2023-05-19T11:57:06.120Z,46.86
2023-05-19T11:58:06.260Z,45.97
2023-05-19T11:59:06.080Z,46.50
2023-05-19T12:00:06.077Z,46.91
2023-05-19T12:01:06.099Z,49.63
2023-05-19T12:02:06.053Z,47.61
2023-05-19T12:03:06.290Z,47.91
2023-05-19T12:04:06.151Z,49.22
2023-05-19T12:05:06.049Z,47.11
2023-05-19T12:06:06.042Z,48.22
2023-05-19T12:07:06.026Z,48.93
2023-05-19T12:08:05.995Z,49.93
2023-05-19T12:09:05.971Z,47.51
2023-05-19T12:10:06.008Z,48.62
2023-05-19T12:11:05.959Z,47.51
2023-05-19T12:12:05.942Z,48.02
2023-05-19T12:13:05.946Z,47.91
2023-05-19T12:14:05.948Z,46.58
2023-05-19T12:15:06.020Z,47.19
2023-05-19T12:16:05.944Z,48.37
2023-05-19T12:17:05.908Z,47.77
2023-05-19T12:18:05.919Z,45.45
2023-05-19T12:19:05.900Z,45.57
2023-05-19T12:20:05.861Z,44.35
2023-05-19T12:21:05.852Z,45.65
2023-05-19T12:22:05.821Z,48.78
2023-05-19T12:23:05.883Z,47.54
2023-05-19T12:24:05.836Z,46.33
2023-05-19T12:25:05.813Z,45.73
2023-05-19T12:26:05.820Z,45.73
2023-05-19T12:27:05.778Z,45.93
2023-05-19T12:28:05.798Z,45.53
2023-05-19T12:29:05.769Z,44.03
2023-05-19T12:30:05.746Z,45.75
2023-05-19T12:31:05.762Z,46.76
2023-05-19T12:32:05.774Z,46.05
2023-05-19T12:33:05.772Z,44.82
2023-05-19T12:34:05.724Z,42.40
2023-05-19T12:35:05.691Z,44.31
2023-05-19T12:36:05.699Z,45.30
2023-05-19T12:37:05.722Z,46.51
2023-05-19T12:38:05.839Z,45.90
2023-05-19T12:39:05.657Z,45.50
2023-05-19T12:40:05.643Z,44.51
2023-05-19T12:41:05.647Z,45.53
2023-05-19T12:42:05.641Z,44.21
2023-05-19T12:43:05.806Z,44.82
2023-05-19T12:44:05.590Z,46.15
2023-05-19T12:45:05.618Z,45.12
2023-05-19T12:46:05.605Z,46.84
2023-05-19T12:47:05.582Z,45.20
2023-05-19T12:48:05.669Z,47.30
2023-05-19T12:49:05.575Z,43.97
2023-05-19T12:50:05.545Z,43.28
2023-05-19T12:51:05.581Z,44.59
2023-05-19T12:52:11.731Z,45.30
2023-05-19T12:53:05.509Z,45.22
2023-05-19T12:54:05.555Z,44.21